Have a Safe July 4th! 

Flight Track Log - Related Links

Times and Time Zones

All times are in EDT time to prevent confusion due to time zone crossing. See the UCA3597 flight status page for this flight to view local times or setup timezone preferences in your user account.

Time Position Orientation Groundspeed Altitude Reporting Facility
EDT Latitude Longitude Course Direction KTS MPH feet Rate Location/Type
Tue 07:21:03 PM 42.2281 -76.0161 211° Southwest 122 140 3,200  Level New York Center
Tue 07:22:02 PM 42.1972 -76.0528 221° Southwest 133 153 4,600 1,412 Climbing New York Center
Tue 07:23:02 PM 42.1497 -76.0908 211° Southwest 156 180 6,000 1,424 Climbing New York Center
Tue 07:24:00 PM 42.1022 -76.1317 213° Southwest 192 221 7,400 1,513 Climbing New York Center
Tue 07:25:01 PM 42.0458 -76.1803 213° Southwest 218 251 9,000 1,488 Climbing New York Center
Tue 07:26:00 PM 41.7491 -76.1977 211° Southwest  Level Estimated
Tue 07:26:01 PM 41.9958 -76.2236 213° Southwest 218 251 10,400  Level New York Center
Tue 07:27:01 PM 41.9461 -76.2642 211° Southwest 218 251 11,700 1,240 Climbing New York Center
Tue 07:29:00 PM 41.8508 -76.3481 213° Southwest 218 251 14,100 1,207 Climbing New York Center
Tue 07:30:00 PM 41.7967 -76.3908 210° Southwest 218 251 15,300 893 Climbing New York Center
Tue 07:31:01 PM 41.7358 -76.4442 213° Southwest 228 262 15,900 298 Climbing New York Center
Tue 07:32:01 PM 41.6731 -76.4944 211° Southwest 257 296 15,900 50 Level New York Center
Tue 07:33:01 PM 41.6058 -76.5053 187° South 280 322 16,000 33 Climbing New York Center
Tue 07:35:01 PM 41.4372 -76.4606 169° South 293 337 16,000  Level New York Center
Tue 07:36:00 PM 41.3586 -76.4456 172° South 293 337 16,000  Level New York Center
Tue 07:37:00 PM 41.2944 -76.4817 203° Southwest 277 319 16,000 -50 Level New York Center
Tue 07:38:01 PM 41.2242 -76.5142 199° South 283 326 15,900 -50 Descending New York Center
Tue 07:39:01 PM 41.1453 -76.5517 200° South 278 320 15,900 50 Level New York Center
Tue 07:40:01 PM 41.0728 -76.5867 200° South 278 320 16,000 50 Climbing New York Center
Tue 07:41:02 PM 41.0025 -76.6167 198° South 278 320 16,000  Level New York Center
Tue 07:42:00 PM 40.9319 -76.6544 202° Southwest 278 320 16,000  Level New York Center
Tue 07:43:01 PM 40.8700 -76.6819 199° South 278 320 16,000  Level New York Center
Tue 07:44:00 PM 40.7889 -76.7189 199° South 278 320 16,000  Level New York Center
Tue 07:45:00 PM 40.7269 -76.7492 200° South 278 320 16,000  Level New York Center
Tue 07:46:01 PM 40.6481 -76.7861 200° South 273 314 16,000  Level New York Center
Tue 07:47:00 PM 40.5778 -76.8181 199° South 273 314 16,000 -50 Level New York Center
Tue 07:48:00 PM 40.5136 -76.8481 200° South 273 314 15,900  Descending New York Center
Tue 07:49:01 PM 40.4325 -76.8844 199° South 273 314 16,000 50 Climbing New York Center
Tue 07:50:01 PM 40.3622 -76.9136 198° South 273 314 16,000  Level New York Center
Tue 07:51:02 PM 40.2894 -76.9508 201° Southwest 273 314 16,000 -99 Level New York Center
Tue 07:52:02 PM 40.2272 -76.9806 200° South 273 314 15,800 -610 Descending New York Center
Tue 07:53:00 PM 40.1442 -77.0167 198° South 279 321 14,800 -1,050 Descending New York Center
Tue 07:54:02 PM 40.0672 -77.0506 199° South 290 334 13,700 -898 Descending New York Center
Tue 07:56:07 PM 39.9000 -77.1167 197° South 290 334 12,000 -778 Descending Potomac TRACON
Tue 07:57:07 PM 39.8333 -77.1667 210° Southwest 290 334 11,300 -684 Descending Potomac TRACON
Tue 07:58:01 PM 39.7667 -77.1833 191° South 285 328 10,700 -700 Descending Potomac TRACON
Tue 07:59:07 PM 39.6833 -77.2333 205° Southwest 278 320 9,900 -700 Descending Potomac TRACON
Tue 08:00:01 PM 39.6333 -77.3000 226° Southwest 276 318 9,300 -684 Descending Potomac TRACON
Tue 08:01:01 PM 39.5667 -77.3167 191° South 278 320 8,600 -900 Descending Potomac TRACON
Tue 08:02:01 PM 39.4833 -77.3500 197° South 273 314 7,500 -800 Descending Potomac TRACON
Tue 08:03:01 PM 39.4167 -77.3667 191° South 265 305 7,000 -750 Descending Potomac TRACON
Tue 08:04:01 PM 39.3500 -77.3667 180° South 269 310 6,000 -1,000 Descending Potomac TRACON
Tue 08:05:01 PM 39.2667 -77.3667 180° South 265 305 5,000 -947 Descending Potomac TRACON
Tue 08:05:55 PM 39.2000 -77.3667 180° South 259 298 4,200 -526 Descending Potomac TRACON
Tue 08:06:55 PM 39.1333 -77.3500 169° South 257 296 4,000 -100 Descending Potomac TRACON
Tue 08:07:55 PM 39.0667 -77.3500 180° South 253 291 4,000  Level Potomac TRACON
Tue 08:08:55 PM 39.0000 -77.3500 180° South 253 291 4,000 -286 Level Potomac TRACON
Tue 08:10:01 PM 38.9167 -77.3500 180° South 262 302 3,400 -476 Descending Potomac TRACON
Tue 08:11:01 PM 38.8500 -77.3500 180° South 232 267 3,000 -222 Descending Potomac TRACON
Tue 08:11:49 PM 38.8000 -77.3667 195° South 227 261 3,000  Level Potomac TRACON
Tue 08:12:49 PM 38.7833 -77.4167 247° West 203 234 3,000 -450 Level Potomac TRACON
Tue 08:13:49 PM 38.8333 -77.4333 345° North 166 191 2,100 -850 Descending Potomac TRACON
Tue 08:14:49 PM 38.8833 -77.4333 360° North 145 167 1,300 -750 Descending Potomac TRACON
Tue 08:15:49 PM 38.9167 -77.4333 360° North 114 131 600 -700 Descending Potomac TRACON
Tue 08:17:00 PM 38.9333 -77.4500 349° North  Level FlightAware Approximate
Tue 08:24:00 PM 38.9474 -77.4599 349° North  Level Estimated
Tue 08:25:00 PM 38.9474 -77.4599 349° North  Level Estimated

Login

Don't have an account? Register now (free) for customized features, flight alerts, and more!